»·PEaware :: N648CR CNM-KLBB

N648CR :: CNM-KLBB

FLIGHT INFORMATION

Flight Status: Arrived
Operator: Privately registered:
United States
More flights under this callsign
Pilot: James D. (19799)
Aircraft: CIRRUS VISIONJET
(SF50)
More flights by this aircraft type
Origin: CNM
Destination: KLBB Lubbock Intl
United States
More flights between these airports :: More routes between these airports
Route: +
File this flight plan on PilotEdge
Remarks:
Altitude:
(Current/Filed)
0ft
Speed:
(Current/Filed)
0kts
Departed: 11-Jul-20 10:30 AM
Arrived: 11-Jul-20 11:26 AM
Distance/Time
Traveled:
Not Available
Distance/Time
To Go:
Arrived

Flight Plot

Page will automatically refresh every two minutes.

Flight plan parsing failed; only flown route is shown


Map Options




Map Legend


Flown Route
Filed Route
Departure Airport
Arrival Airport
Navaid (VOR, NDB)
Fix

Horizontal Profiles

Position Reports

Time Latitude Longitude Heading Altitude Ground
Speed
11-Jul-20 10:28 32.334735 -104.103302 93 9497ft 208kts
11-Jul-20 10:29 32.333282 -104.021343 92 9542ft 277kts
11-Jul-20 10:30 32.331621 -103.932001 92 9502ft 264kts
11-Jul-20 10:31 32.329939 -103.845243 92 9500ft 268kts
11-Jul-20 10:32 32.328097 -103.756225 93 9500ft 273kts
11-Jul-20 10:33 32.326217 -103.666007 93 9503ft 274kts
11-Jul-20 10:34 32.324262 -103.575619 93 9513ft 275kts
11-Jul-20 10:35 32.322257 -103.485072 93 9526ft 276kts
11-Jul-20 10:36 32.320175 -103.394012 93 9535ft 277kts
11-Jul-20 10:37 32.318016 -103.302593 94 9559ft 277kts
11-Jul-20 10:38 32.315807 -103.211769 94 9534ft 274kts
11-Jul-20 10:39 32.313557 -103.122150 93 9533ft 272kts
11-Jul-20 10:40 32.311249 -103.032539 93 9532ft 271kts
11-Jul-20 10:41 32.308891 -102.943372 92 9532ft 272kts
11-Jul-20 10:42 32.306461 -102.853794 93 9538ft 272kts
11-Jul-20 10:43 32.303971 -102.764353 93 9545ft 272kts
11-Jul-20 10:44 32.301411 -102.674731 93 9549ft 273kts
11-Jul-20 10:45 32.298780 -102.584840 93 9549ft 273kts
11-Jul-20 10:46 32.296079 -102.494912 93 9548ft 273kts
11-Jul-20 10:47 32.293316 -102.405100 92 9535ft 274kts
11-Jul-20 10:48 32.290472 -102.314860 93 9517ft 273kts
11-Jul-20 10:50 32.287615 -102.225412 93 9500ft 272kts
11-Jul-20 10:51 32.310323 -102.146959 28 9499ft 279kts
11-Jul-20 10:52 32.385502 -102.122963 13 9509ft 281kts
11-Jul-20 10:53 32.462436 -102.104861 12 9520ft 282kts
11-Jul-20 10:54 32.539350 -102.086889 12 9520ft 283kts
11-Jul-20 10:55 32.616612 -102.068805 12 9516ft 283kts
11-Jul-20 10:56 32.693624 -102.050743 12 9523ft 283kts
11-Jul-20 10:57 32.770719 -102.032631 12 9543ft 283kts
11-Jul-20 10:58 32.847967 -102.014455 12 9555ft 284kts
11-Jul-20 10:59 32.925174 -101.996255 12 9555ft 284kts
11-Jul-20 11:00 33.002815 -101.977908 12 9546ft 285kts
11-Jul-20 11:01 33.081119 -101.959379 10 9529ft 289kts
11-Jul-20 11:02 33.160746 -101.940513 9 9517ft 291kts
11-Jul-20 11:03 33.240270 -101.921663 9 9501ft 292kts
11-Jul-20 11:04 33.320018 -101.906988 5 9499ft 290kts
11-Jul-20 11:05 33.400081 -101.894880 5 9499ft 290kts
11-Jul-20 11:06 33.480253 -101.882728 5 9216ft 288kts
11-Jul-20 11:07 33.559221 -101.870739 5 8707ft 284kts
11-Jul-20 11:07 33.624938 -101.860747 5 8127ft 287kts
11-Jul-20 11:09 33.717200 -101.846686 5 7314ft 284kts
11-Jul-20 11:09 33.781257 -101.836906 6 6746ft 274kts
11-Jul-20 11:10 33.853608 -101.825841 6 6243ft 254kts
11-Jul-20 11:11 33.922950 -101.815222 6 5748ft 249kts
11-Jul-20 11:13 34.002745 -101.802984 6 5180ft 247kts
11-Jul-20 11:13 34.053706 -101.795134 6 5091ft 184kts
11-Jul-20 11:14 34.078691 -101.814279 216 4766ft 123kts
11-Jul-20 11:15 34.051602 -101.827913 191 5101ft 138kts
11-Jul-20 11:16 34.006909 -101.830597 180 4792ft 175kts
11-Jul-20 11:17 33.957568 -101.830502 180 4588ft 174kts
11-Jul-20 11:18 33.909720 -101.830380 181 4590ft 171kts
11-Jul-20 11:19 33.862143 -101.830238 181 4591ft 171kts
11-Jul-20 11:20 33.815295 -101.830035 181 4597ft 166kts
11-Jul-20 11:21 33.773403 -101.829713 181 4596ft 136kts
11-Jul-20 11:22 33.737429 -101.829459 182 4378ft 123kts
11-Jul-20 11:23 33.706904 -101.829231 182 3806ft 89kts
11-Jul-20 11:24 33.682809 -101.829044 182 3336ft 85kts
11-Jul-20 11:25 33.668048 -101.828944 180 3256ft 30kts
11-Jul-20 11:26 33.665240 -101.830108 245 3256ft 5kts
11-Jul-20 11:27 33.663610 -101.831198 179 3253ft 11kts
11-Jul-20 11:28 33.659846 -101.831157 180 3247ft 14kts
11-Jul-20 11:29 33.658594 -101.832217 172 3243ft 0kts

Navigation Log

Ident Type
Flight plan parsing failed, navigation log unavailable